Date,TemperatureHighF,TemperatureAvgF,TemperatureLowF,DewpointHighF,DewpointAvgF,DewpointLowF,HumidityHigh,HumidityAvg,HumidityLow,PressureMaxIn,PressureMinIn,WindSpeedMaxMPH,WindSpeedAvgMPH,GustSpeedMaxMPH,PrecipitationSumIn
2013-1-1,23,11,4,6,-2,-7,66,57,46,30.18,30.09,5,0,5,0.00
2013-1-2,30,20,8,16,7,-6,68,57,43,30.12,30.00,12,2,12,0.00
2013-1-3,27,23,14,18,14,5,75,69,62,30.18,30.00,6,1,6,0.00
2013-1-4,34,21,11,17,10,3,75,63,50,30.15,30.03,7,2,7,0.00
2013-1-5,35,27,14,33,20,8,95,78,62,30.18,29.85,9,2,10,0.04
2013-1-6,35,27,18,31,20,11,89,73,58,30.27,29.85,6,1,7,0.00
2013-1-7,39,27,12,24,17,6,79,67,49,30.24,30.00,17,2,17,0.00
2013-1-8,42,33,22,29,24,16,84,71,55,30.09,29.94,12,3,12,0.17
2013-1-9,43,35,26,29,24,18,76,65,48,30.42,29.91,10,1,10,0.08
2013-1-10,40,31,20,35,25,14,96,80,70,30.44,29.88,10,2,13,0.21
2013-1-11,51,43,36,48,42,35,98,96,84,29.88,29.65,15,3,15,0.08
2013-1-12,51,39,26,46,30,16,85,71,59,29.97,29.65,17,2,17,0.00
2013-1-13,26,21,14,20,11,2,80,66,57,30.15,29.85,6,1,7,0.00
2013-1-14,30,17,10,12,4,-2,64,56,44,30.39,30.15,6,0,6,0.00
2013-1-15,35,21,13,16,9,3,74,59,43,30.36,30.06,9,1,9,0.00
2013-1-16,33,26,15,27,15,5,77,62,49,30.06,29.74,8,2,10,0.00
2013-1-17,30,21,14,14,5,1,59,50,41,30.33,30.03,8,1,8,0.00
2013-1-18,42,29,13,28,17,1,69,61,51,30.36,29.83,18,4,22,0.08
2013-1-19,46,37,20,33,26,2,72,64,39,29.88,29.65,12,2,12,0.00
2013-1-20,21,13,8,2,-4,-8,47,46,43,30.24,29.88,10,1,14,0.00
2013-1-21,12,6,-3,-6,-11,-19,45,45,45,30.21,30.06,10,1,10,0.00
2013-1-22,12,2,-6,-5,-14,-22,45,45,45,30.30,30.21,6,1,8,0.00
2013-1-23,18,12,4,8,-2,-13,67,54,45,30.33,30.03,10,2,13,0.00
2013-1-24,20,11,0,4,-2,-9,64,57,45,30.56,30.30,6,2,12,0.00
2013-1-25,25,20,14,13,8,2,69,59,47,30.30,29.91,13,2,13,0.00
2013-1-26,32,19,8,12,5,-2,63,54,42,30.33,30.15,7,1,7,0.00
2013-1-27,33,28,23,30,19,9,90,70,53,30.33,29.85,13,3,13,0.00
2013-1-28,46,37,32,38,34,28,98,89,68,29.94,29.77,8,1,8,0.09
2013-1-29,58,45,35,57,45,34,98,98,94,29.83,29.47,11,1,13,0.91
2013-1-30,37,29,16,37,26,10,98,89,74,29.59,29.26,10,1,10,0.21
2013-1-31,17,12,3,10,2,-8,76,63,54,30.09,29.59,0,0,0,0.00
2013-2-1,9,4,-3,-2,-8,-14,59,59,59,30.24,30.09,0,0,0,0.00
2013-2-2,19,10,5,4,-2,-9,60,56,51,30.09,29.97,0,0,0,0.00
2013-2-3,27,14,5,11,1,-9,70,55,47,30.00,29.88,5,0,6,0.00
2013-2-4,24,16,8,12,6,-4,75,65,56,29.97,29.88,7,2,8,0.00
2013-2-5,28,18,2,21,9,-10,78,67,56,30.06,29.74,8,1,8,0.00
2013-2-6,36,22,2,26,12,-8,77,64,52,30.18,30.06,10,1,10,0.00
2013-2-7,34,32,23,31,28,20,95,86,77,30.09,29.85,6,1,6,0.00
2013-2-8,27,21,12,20,16,6,86,79,71,30.33,30.00,4,0,4,0.00
2013-2-9,30,18,6,22,11,-1,83,76,74,30.33,30.06,6,1,7,0.00
2013-2-10,42,32,16,42,30,10,98,91,75,30.06,29.44,16,3,18,0.00
2013-2-11,39,31,26,32,24,17,81,73,66,29.94,29.44,17,2,19,0.00
2013-2-12,33,24,17,19,15,10,78,67,52,30.06,29.85,6,1,6,0.00
2013-2-13,41,27,13,28,19,8,87,73,55,29.85,29.68,8,1,9,0.00
2013-2-14,36,33,26,32,26,19,86,77,64,29.94,29.56,8,1,8,0.00
2013-2-15,32,22,14,22,9,0,79,56,42,30.15,29.94,7,1,7,0.00
2013-2-16,22,13,6,3,-3,-11,55,49,43,30.15,30.06,6,1,6,0.00
2013-2-17,31,16,2,10,0,-14,63,47,41,30.15,29.94,9,2,9,0.00
2013-2-18,46,34,24,38,24,9,92,67,52,29.94,29.41,12,3,16,0.00
2013-2-19,31,16,8,29,7,-4,91,68,56,30.09,29.50,8,1,8,0.00
2013-2-20,26,13,5,9,0,-6,64,57,47,30.30,30.09,8,1,9,0.00
2013-2-21,26,20,11,22,12,1,83,72,63,30.36,30.03,13,3,17,0.00
2013-2-22,33,28,24,27,23,20,90,83,76,30.03,29.77,12,3,14,0.00
2013-2-23,31,25,18,22,16,10,82,70,55,29.91,29.83,8,1,11,0.00
2013-2-24,42,26,13,25,15,7,79,65,45,30.09,29.88,4,0,4,0.00
2013-2-25,44,28,15,27,18,8,79,67,50,30.12,30.00,7,1,7,0.00
2013-2-26,34,32,30,32,26,21,98,79,59,30.00,29.59,17,6,18,0.00
2013-2-27,35,32,30,31,30,26,96,91,84,29.74,29.53,9,2,10,0.00
2013-2-28,34,31,24,30,24,16,91,77,64,30.09,29.71,10,3,10,0.00
2013-3-1,25,24,22,18,16,12,75,70,63,30.21,30.03,9,3,10,0.00
2013-3-2,33,21,8,16,8,-3,68,58,44,30.18,30.12,7,2,8,0.00
2013-3-3,37,17,4,15,2,-7,73,53,40,30.12,30.03,6,1,6,0.00
2013-3-4,35,23,8,20,11,-6,68,59,52,30.09,30.00,10,2,10,1.20
2013-3-5,31,29,26,26,23,20,89,78,67,30.03,29.85,12,4,12,0.00
2013-3-6,35,30,26,26,23,20,81,74,63,30.27,30.00,8,1,8,0.00
2013-3-7,42,28,18,23,17,10,74,63,44,30.39,30.24,6,0,6,0.04
2013-3-8,46,27,12,28,18,4,81,68,48,30.42,30.27,10,1,10,0.00
2013-3-9,40,34,27,32,27,20,85,75,62,30.27,29.83,12,2,12,0.12
2013-3-10,42,38,35,42,37,31,98,96,85,29.83,29.62,10,1,10,0.59
2013-3-11,38,34,31,38,34,28,98,97,89,29.74,29.53,6,0,6,0.08
2013-3-12,35,30,25,28,24,19,89,78,56,29.97,29.74,6,0,6,0.00
2013-3-13,37,25,19,19,11,6,79,55,40,30.27,29.94,9,1,10,0.00
2013-3-14,39,27,16,24,15,6,79,62,47,30.27,30.03,9,1,9,0.04
2013-3-15,37,32,28,32,27,23,89,82,75,30.03,29.80,11,2,11,0.04
2013-3-16,36,29,26,26,21,14,87,73,49,30.09,29.77,11,3,14,0.00
2013-3-17,35,26,20,19,13,6,70,57,48,30.21,30.00,10,3,11,0.00
2013-3-18,36,29,19,30,22,8,87,76,60,30.00,29.56,9,3,10,0.09
2013-3-19,34,22,13,14,7,3,66,54,42,30.00,29.71,8,2,8,0.00
2013-3-20,20,15,12,5,1,-3,53,52,49,30.00,29.00,5,0,5,0.00
2013-3-21,35,20,10,15,4,-4,56,49,41,30.00,29.94,8,1,8,0.00
2013-3-22,41,24,14,19,9,3,62,52,39,30.03,29.97,6,0,6,0.00
2013-3-23,45,30,19,24,17,9,70,59,42,30.09,30.03,8,2,10,0.00
2013-3-24,36,32,30,26,22,17,74,66,59,30.03,29.74,14,4,23,0.00
2013-3-25,35,31,27,24,21,17,79,66,53,30.06,29.74,14,3,14,0.00
2013-3-26,44,35,30,27,21,19,67,58,46,30.21,30.06,6,1,8,0.00
2013-3-27,42,35,27,22,18,14,61,51,39,30.30,30.21,7,0,7,0.00
2013-3-28,52,36,24,26,18,13,66,50,34,30.30,30.24,7,1,7,0.00
2013-3-29,56,38,24,28,19,14,73,50,30,30.30,30.21,6,1,6,0.00
2013-3-30,58,42,26,37,27,14,70,56,41,30.21,29.83,15,3,15,0.00
2013-3-31,56,42,30,40,32,18,85,67,41,29.88,29.68,9,1,9,0.00
2013-4-1,42,31,25,19,13,7,67,47,36,30.15,29.88,11,1,11,0.00
2013-4-2,46,30,21,19,11,7,59,45,31,30.30,30.15,7,1,7,0.00
2013-4-3,50,33,22,21,13,7,58,43,29,30.42,30.27,10,2,10,0.00
2013-4-4,61,42,25,33,21,9,56,44,34,30.27,29.94,12,1,12,0.00
2013-4-5,52,39,28,28,22,16,75,52,38,30.21,30.00,9,3,10,0.00
2013-4-6,63,48,34,47,31,18,83,54,36,30.15,29.56,23,5,23,0.00
2013-4-7,60,46,35,47,34,26,85,64,39,29.97,29.56,9,2,10,0.00
2013-4-8,56,42,35,48,37,27,97,82,69,29.97,29.59,8,2,9,0.00
2013-4-9,40,38,37,39,37,36,98,96,88,30.00,29.85,17,4,17,0.00
2013-4-10,38,36,34,37,36,32,98,97,93,30.03,29.83,17,5,17,0.00
2013-4-11,38,37,35,37,36,34,98,98,95,29.91,29.56,19,6,20,0.00
2013-4-12,44,38,34,42,35,29,98,92,77,29.83,29.50,6,1,6,0.00
2013-4-13,39,36,30,30,26,23,82,69,57,29.97,29.77,6,1,7,0.00
2013-4-14,50,39,30,46,34,24,95,82,66,29.97,29.65,14,3,14,0.00
2013-4-15,61,51,41,53,44,34,98,79,47,29.97,29.62,30,2,30,0.00
2013-4-16,58,43,33,39,33,29,94,69,39,30.27,29.94,8,1,8,0.00
2013-4-17,42,40,38,42,35,27,98,81,60,30.30,29.85,16,4,16,0.00
2013-4-18,56,46,39,55,45,33,98,96,78,29.85,29.38,13,2,13,0.00
2013-4-19,41,36,30,34,26,21,82,67,52,29.88,29.38,12,2,12,0.00
2013-4-20,50,35,25,25,18,13,67,50,35,30.39,29.88,8,1,8,0.00
2013-4-21,54,40,27,29,23,18,74,53,37,30.48,30.27,15,4,15,0.00
2013-4-22,62,40,0,37,30,24,70,42,36,30.27,29.06,11,3,12,0.00
2013-4-23,55,44,37,47,38,30,94,79,50,30.03,29.88,6,2,6,0.42
2013-4-24,58,43,34,30,26,22,78,54,34,30.03,29.91,9,2,12,0.00
2013-4-25,55,45,36,34,28,23,74,54,37,30.27,29.97,8,1,9,0.00
2013-4-26,69,52,33,43,34,24,72,53,37,30.27,30.15,22,4,22,0.00
2013-4-27,72,57,43,47,41,35,84,58,36,30.27,30.03,11,2,12,0.00
2013-4-28,76,58,49,52,43,36,78,59,37,30.03,29.83,6,1,8,0.00
2013-4-29,70,59,45,54,48,42,95,70,45,29.88,29.77,13,2,13,0.00
2013-4-30,73,34,0,60,56,49,82,38,45,29.91,28.88,15,2,15,0.00
2013-5-1,87,72,51,55,50,37,71,49,28,30.21,29.91,12,3,13,0.00
2013-5-2,59,48,39,49,38,31,94,70,49,30.24,30.15,10,3,10,0.74
2013-5-3,48,43,38,47,42,36,98,97,94,30.18,29.97,9,3,9,0.67
2013-5-4,72,57,45,55,47,40,98,72,42,30.06,29.97,10,2,10,0.00
2013-5-5,73,58,44,48,41,34,83,57,35,30.06,30.00,9,2,10,0.00
2013-5-6,77,60,45,45,39,33,73,48,27,30.09,30.00,8,1,8,0.00
2013-5-7,81,62,46,47,40,32,72,46,30,30.06,30.00,6,1,6,0.00
2013-5-8,86,63,45,50,43,37,82,52,28,30.06,29.97,7,1,7,0.00
2013-5-9,68,57,44,56,48,41,93,73,52,30.00,29.88,8,1,10,0.04
2013-5-10,49,45,41,44,42,37,98,91,81,29.97,29.83,8,2,10,0.96
2013-5-11,56,46,37,50,36,24,98,71,37,30.00,29.80,10,1,12,0.00
2013-5-12,60,45,36,33,25,21,62,46,32,30.09,30.00,8,2,8,0.00
2013-5-13,68,47,32,37,30,25,80,53,27,30.15,29.97,9,2,9,0.00
2013-5-14,88,66,46,57,45,28,68,49,28,29.97,29.62,10,2,11,0.00
2013-5-15,85,70,56,57,46,38,65,44,25,29.85,29.59,7,1,10,0.00
2013-5-16,81,64,52,51,42,31,71,46,30,30.00,29.85,10,2,10,0.00
2013-5-17,67,56,50,50,41,29,85,57,39,30.09,29.97,9,2,10,0.00
2013-5-18,82,65,51,62,52,42,76,64,46,30.06,29.97,8,2,9,0.12
2013-5-19,88,70,54,66,58,50,89,68,43,29.97,29.77,14,2,14,0.00
2013-5-20,88,74,64,64,58,51,89,59,32,29.80,29.71,14,2,14,0.00
2013-5-21,82,69,60,64,58,51,89,70,41,29.74,29.68,13,2,14,0.00
2013-5-22,68,61,54,65,58,53,96,90,80,29.80,29.65,6,1,6,0.62
2013-5-23,60,50,39,53,44,31,96,80,56,30.30,29.80,8,2,8,0.04
2013-5-24,68,48,35,45,34,30,85,60,36,30.42,30.30,6,1,7,0.09
2013-5-25,62,52,42,40,35,27,78,55,37,30.39,30.30,8,1,8,0.00
2013-5-26,69,53,38,45,38,28,78,58,36,30.30,30.15,11,2,11,0.00
2013-5-27,54,52,50,52,47,37,95,84,56,30.18,29.91,11,3,12,0.00
2013-5-28,68,20,0,66,53,49,98,33,95,29.91,28.73,4,0,4,0.41
2013-5-29,85,70,62,69,64,61,98,83,53,29.94,29.80,10,1,10,0.00
2013-5-30,86,75,63,68,64,60,90,70,49,29.91,29.80,26,5,26,0.00
2013-5-31,76,68,63,68,62,58,97,82,57,29.88,29.74,14,3,17,0.13
2013-6-1,81,70,61,66,62,58,94,79,52,29.74,29.65,13,2,13,0.20
2013-6-2,61,55,46,58,46,39,92,71,52,30.03,29.71,6,1,7,0.00
2013-6-3,75,57,42,52,42,34,94,63,33,30.09,30.00,5,2,5,0.00
2013-6-4,73,59,49,48,42,36,78,55,36,30.18,30.09,8,2,10,0.00
2013-6-5,66,58,52,53,46,40,80,65,52,30.15,29.97,8,2,8,0.00
2013-6-6,60,56,53,54,49,46,84,77,68,29.97,29.91,5,1,6,0.00
2013-6-7,76,61,51,51,44,36,82,57,29,29.97,29.91,9,1,10,0.00
2013-6-8,76,60,46,52,45,41,85,61,33,30.03,29.94,5,1,6,0.00
2013-6-9,80,66,54,59,52,46,76,62,45,30.03,29.85,12,2,14,0.00
2013-6-10,82,69,61,66,60,55,90,76,48,29.88,29.80,6,0,6,0.00
2013-6-11,86,61,59,67,57,56,95,89,52,29.91,29.83,1,0,2,0.00
2013-6-12,79,70,63,66,62,57,98,79,58,29.91,29.68,10,2,10,0.00
2013-6-13,78,65,56,62,54,47,98,70,42,30.09,29.71,7,1,7,0.00
2013-6-14,82,64,51,60,50,44,86,63,39,30.15,30.03,6,1,6,0.00
2013-6-15,82,67,56,72,61,46,98,83,65,30.09,29.85,7,1,7,0.00
2013-6-16,87,73,64,68,63,55,98,76,38,29.91,29.85,6,1,6,0.00
2013-6-17,87,87,86,61,61,59,42,41,40,29.91,29.91,4,2,5,0.00
2013-6-22,69,68,68,66,66,65,93,91,88,30.06,30.00,4,0,4,0.00
2013-6-23,89,74,64,75,67,62,97,79,55,30.03,29.88,11,2,12,0.00
2013-6-24,84,73,67,70,66,64,95,81,61,30.06,29.85,7,1,8,0.00
2013-6-25,82,71,66,76,68,64,98,92,78,29.97,29.83,11,1,11,0.00
2013-6-26,79,71,67,71,67,66,98,89,67,29.85,29.74,11,1,11,0.00
2013-6-27,88,73,65,75,68,62,98,86,54,29.83,29.71,6,0,8,0.00
2013-6-28,82,71,64,65,61,56,96,74,47,29.77,29.62,8,1,8,0.00
2013-6-30,63,63,62,43,43,43,49,49,48,30.03,30.03,0,0,0,0.00
2013-7-1,78,69,61,47,43,41,61,41,31,30.12,30.09,8,1,8,0.00
2013-7-2,77,63,56,53,48,41,83,60,34,30.12,30.09,6,1,6,0.00
2013-7-3,68,64,60,63,58,48,91,79,65,30.09,30.03,3,0,5,0.00
2013-7-4,88,72,58,64,60,54,95,70,36,30.12,30.03,8,1,8,0.00
2013-7-5,89,74,60,67,60,53,92,65,39,30.12,30.03,10,1,10,0.00
2013-7-6,90,72,60,66,61,55,93,72,35,30.09,29.97,7,1,8,0.00
2013-7-7,79,71,67,70,66,63,93,84,69,30.03,29.94,6,0,6,0.00
2013-7-8,91,76,71,78,70,66,93,83,63,30.03,29.94,7,1,10,0.00
2013-7-9,83,73,67,79,71,66,97,92,79,30.03,29.85,6,1,6,0.00
2013-7-10,82,73,62,73,62,50,98,70,38,30.03,29.85,7,1,9,0.00
2013-7-11,84,68,57,60,54,48,92,65,34,30.15,30.03,6,1,7,0.00
2013-7-12,89,68,54,61,54,46,91,64,34,30.18,30.09,6,1,6,0.00
2013-7-13,87,71,57,63,57,50,93,65,33,30.21,30.12,10,2,10,0.00
2013-7-14,91,75,62,71,63,56,91,69,40,30.27,30.18,6,1,6,0.00
2013-7-15,92,77,67,76,69,63,92,77,52,30.30,30.24,6,1,6,0.00
2013-7-16,97,82,70,77,72,68,94,75,48,30.30,30.24,6,0,6,0.00
2013-7-17,96,83,73,77,73,66,93,73,48,30.33,30.18,6,0,6,0.00
2013-7-18,97,83,72,77,71,68,93,70,43,30.21,29.94,6,0,7,0.00
2013-7-19,96,83,73,75,70,64,83,66,44,29.94,29.77,6,1,10,0.00
2013-7-20,87,73,63,66,60,55,83,65,39,30.00,29.85,6,0,6,0.00
2013-7-21,84,68,60,68,61,55,98,79,52,30.00,29.88,7,1,7,0.00
2013-7-22,88,73,61,75,66,59,98,82,47,29.91,29.74,8,1,11,0.00
2013-7-23,78,68,58,64,56,46,93,68,39,30.03,29.74,7,1,8,0.00
2013-7-24,77,63,54,56,51,48,89,68,42,30.09,30.00,5,0,5,0.00
2013-7-25,83,66,52,63,55,49,92,69,45,30.12,30.00,8,1,8,0.00
2013-7-26,69,66,59,68,61,57,96,86,65,30.00,29.88,10,1,10,0.00
2013-7-27,64,57,54,57,50,46,98,79,56,29.97,29.88,7,1,7,0.00
2013-7-28,72,60,52,55,50,47,90,73,48,30.03,29.85,9,1,9,0.00
2013-7-29,79,63,53,60,53,49,90,72,46,30.21,30.03,5,0,5,0.00
2013-7-30,75,64,54,63,58,51,94,82,56,30.21,30.09,6,0,8,0.00
2013-7-31,78,66,60,71,64,59,98,93,69,30.12,29.97,6,0,6,0.00
2013-8-1,80,65,58,65,58,51,98,79,41,30.00,29.94,5,0,6,0.00
2013-8-2,80,68,59,71,62,55,98,83,59,29.97,29.88,4,0,5,0.00
2013-8-3,79,66,55,56,52,48,92,64,36,30.12,29.97,6,0,6,0.00
2013-8-4,78,64,53,61,54,50,96,73,47,30.24,30.12,6,1,6,0.00
2013-8-5,73,63,55,63,58,52,94,82,63,30.15,29.88,10,1,10,0.00
2013-8-6,88,72,61,72,66,59,97,82,56,29.91,29.83,8,0,8,0.00
2013-8-7,86,75,64,73,66,58,96,76,43,30.00,29.80,6,0,8,0.00
2013-8-8,81,68,60,63,56,46,96,69,35,30.09,30.00,6,1,6,0.00
2013-8-9,83,69,56,66,59,51,91,72,51,30.06,30.00,5,0,5,0.00
2013-8-10,80,66,56,62,55,52,92,70,40,30.15,30.06,4,0,4,0.00
2013-8-11,75,64,54,67,60,51,94,85,69,30.15,30.06,6,0,6,0.00
2013-8-12,82,70,63,71,64,56,98,84,50,30.06,29.91,3,0,3,0.00
2013-8-13,74,61,52,58,47,42,82,61,38,30.18,30.00,6,1,6,0.00
2013-8-14,76,60,49,52,48,44,89,66,37,30.24,30.15,4,0,5,0.00
2013-8-15,80,64,53,61,53,48,87,71,43,30.18,30.09,4,0,5,0.00
2013-8-16,82,66,55,60,54,49,93,67,40,30.21,30.12,4,0,6,0.00
2013-8-17,85,66,52,64,54,48,93,67,37,30.27,30.18,5,0,6,0.00
2013-8-18,84,66,52,64,54,48,92,69,40,30.24,30.12,5,0,6,0.00
2013-8-19,84,69,54,66,59,51,92,73,49,30.15,30.03,6,0,6,0.00
2013-8-20,88,72,59,69,62,57,95,73,43,30.12,30.03,9,1,12,0.00
2013-8-21,90,76,65,72,65,60,91,71,43,30.09,29.94,8,1,13,0.00
2013-8-22,75,70,62,71,66,60,97,88,73,30.18,30.03,8,0,8,0.00
2013-8-23,83,67,56,65,58,51,98,76,40,30.21,30.15,7,1,7,0.00
2013-8-24,87,69,53,66,58,50,96,72,42,30.27,30.18,8,1,8,0.00
2013-8-25,91,76,63,72,63,55,83,67,40,30.24,30.12,10,1,10,0.00
2013-8-26,91,78,69,76,68,63,82,73,57,30.15,30.00,7,0,7,0.00
2013-8-27,96,81,72,77,71,68,90,73,44,30.00,29.83,7,1,7,0.00
2013-8-28,87,76,67,72,68,62,90,76,54,30.09,29.85,3,0,3,0.00
2013-8-29,92,74,63,72,65,60,96,75,43,30.12,30.00,3,0,3,0.00
2013-8-30,96,74,65,78,68,56,98,84,37,30.03,29.80,10,1,10,0.00
2013-8-31,79,68,62,70,64,60,95,87,69,29.91,29.83,5,1,5,0.00
2013-9-1,87,70,61,74,66,59,98,86,63,29.85,29.74,5,0,6,0.00
2013-9-2,74,64,55,63,57,50,95,79,47,30.03,29.85,6,0,6,0.00
2013-9-3,78,62,50,58,53,48,93,75,44,30.12,30.03,6,0,6,0.00
2013-9-4,81,66,53,67,58,51,95,79,55,30.15,30.03,4,0,5,0.00
2013-9-5,77,65,52,62,52,43,89,65,40,30.30,30.15,6,1,8,0.00
2013-9-6,88,67,49,68,57,44,92,72,47,30.27,30.03,8,1,8,0.00
2013-9-7,82,71,63,71,65,60,93,81,63,30.03,29.91,8,1,8,0.00
2013-9-8,71,68,66,66,63,60,89,84,75,30.09,30.00,6,2,6,0.00
2013-9-9,94,77,65,75,69,62,96,79,50,30.00,29.83,8,2,8,0.00
2013-9-10,96,81,70,69,63,58,76,58,31,29.97,29.85,8,1,8,0.00
2013-9-11,83,74,66,72,64,61,86,72,54,30.12,29.97,5,0,5,0.00
2013-9-12,75,66,58,65,56,44,95,72,40,30.15,30.00,7,1,7,0.00
2013-9-13,70,56,46,44,40,36,79,58,34,30.24,30.15,6,1,6,0.00
2013-9-14,76,57,41,49,43,37,89,62,35,30.18,30.03,7,1,8,0.00
2013-9-15,59,56,54,57,51,42,97,86,63,30.24,30.00,5,1,5,0.00
2013-9-16,68,53,43,50,43,38,87,70,44,30.39,30.24,6,1,6,0.00
2013-9-17,73,55,41,55,47,37,94,75,48,30.36,30.12,8,1,8,0.00
2013-9-18,80,65,57,66,59,52,92,80,60,30.12,29.91,10,1,10,0.00
2013-9-19,83,72,66,73,67,62,98,87,68,29.97,29.80,11,2,11,0.00
2013-9-20,72,66,56,69,61,52,98,87,67,29.85,29.77,6,1,6,0.00
2013-9-21,58,54,48,53,47,41,92,77,55,29.97,29.83,6,1,8,0.00
2013-9-22,68,51,43,49,42,39,90,74,39,30.09,29.97,5,1,7,0.00
2013-9-23,70,52,41,54,44,37,94,75,46,30.12,30.06,7,1,7,0.00
2013-9-24,72,55,43,57,47,40,96,75,45,30.09,30.00,5,2,5,0.00
2013-9-25,72,56,48,59,48,43,95,76,45,30.03,29.97,3,1,3,0.00
2013-9-26,78,57,46,62,47,42,97,73,35,30.12,30.00,6,1,6,0.00
2013-9-27,82,60,45,57,48,40,94,68,36,30.18,30.09,8,1,8,0.00
2013-9-28,81,64,51,63,54,46,92,71,40,30.09,29.88,17,3,17,0.00
2013-9-29,72,57,47,53,45,37,94,68,34,30.09,29.97,5,0,5,0.00
2013-9-30,76,56,42,50,43,37,92,66,38,30.03,29.88,10,1,10,0.00
2013-10-1,84,65,49,63,56,43,93,75,45,30.00,29.85,12,1,15,0.00
2013-10-2,80,61,49,57,47,39,95,64,30,30.15,30.00,5,1,6,0.00
2013-10-3,76,65,55,69,61,48,97,88,70,30.03,29.88,10,1,11,0.00
2013-10-4,67,64,61,66,63,60,98,97,94,30.03,29.91,7,1,7,0.00
2013-10-5,73,66,62,72,65,60,98,97,79,30.00,29.77,17,0,17,0.00
2013-10-6,64,54,47,64,48,39,98,81,56,29.80,29.71,7,1,9,0.00
2013-10-7,68,53,45,50,44,41,95,76,46,30.09,29.74,6,1,9,0.00
2013-10-8,78,56,40,55,45,37,97,70,34,30.18,30.09,8,1,8,0.00
2013-10-9,75,57,46,53,45,40,93,68,34,30.24,30.15,8,1,8,0.00
2013-10-10,76,56,43,59,46,38,95,72,39,30.18,30.06,8,1,8,0.00
2013-10-11,76,59,47,59,49,43,94,71,44,30.09,29.97,11,2,11,0.00
2013-10-12,67,58,46,63,52,41,92,80,66,30.18,29.94,7,1,8,0.00
2013-10-13,64,48,39,46,38,33,94,71,37,30.39,30.18,6,0,8,0.00
2013-10-14,64,48,35,49,38,31,93,72,47,30.42,30.15,8,1,8,0.00
2013-10-15,61,53,45,60,50,41,97,88,78,30.15,29.77,6,1,8,0.00
2013-10-16,56,50,46,51,47,43,93,89,81,29.94,29.80,6,0,6,0.00
2013-10-17,52,47,40,50,44,38,96,92,82,29.94,29.83,4,0,4,0.00
2013-10-18,50,42,35,46,39,33,98,87,74,29.94,29.80,6,0,6,0.00
2013-10-19,55,44,37,41,37,33,94,77,51,29.91,29.74,9,1,9,0.00
2013-10-20,51,44,34,45,38,31,94,81,56,29.85,29.74,7,1,8,0.00
2013-10-21,45,40,30,43,30,20,93,68,51,29.94,29.77,6,1,7,0.00
2013-10-22,48,35,27,31,25,21,78,67,47,29.97,29.88,8,1,8,0.00
2013-10-23,48,36,27,28,24,21,80,62,41,30.00,29.91,6,1,7,0.00
2013-10-24,45,36,30,27,23,19,71,59,48,30.27,29.97,7,1,8,0.00
2013-10-25,55,39,25,31,24,18,79,56,38,30.33,29.91,14,2,17,0.00
2013-10-26,54,46,39,34,25,22,59,45,37,30.06,29.80,12,2,12,0.00
2013-10-27,58,41,30,33,26,22,75,56,36,30.06,29.91,8,1,10,0.00
2013-10-28,45,41,34,34,29,24,78,63,53,30.39,30.03,8,2,8,0.00
2013-10-29,55,43,35,44,35,24,88,72,57,30.36,30.12,10,2,10,0.00
2013-10-30,58,50,42,57,47,38,98,90,85,30.15,29.77,20,2,20,0.00
2013-10-31,62,57,44,61,56,42,98,97,91,29.77,29.26,8,1,8,0.00
2013-11-1,46,44,41,44,41,38,96,89,84,29.74,29.35,8,1,8,0.00
2013-11-2,46,41,38,42,38,35,97,88,70,30.12,29.74,8,0,8,0.00
2013-11-3,55,42,30,42,35,27,97,78,47,30.27,30.12,9,2,10,0.00
2013-11-4,55,49,42,41,37,33,80,65,46,30.24,30.06,20,4,20,0.00
2013-11-5,55,51,48,50,46,41,92,82,70,30.24,29.91,17,2,17,0.00
2013-11-6,56,44,30,55,41,25,98,89,78,30.12,29.74,13,2,13,0.00
2013-11-7,39,15,0,32,29,23,88,41,76,30.18,0.00,4,0,4,0.00
2013-11-8,0,0,0,32,32,32,0,0,100,0.00,0.00,0,0,0,0.00
2013-11-9,0,0,0,32,32,32,0,0,100,0.00,0.00,0,0,0,0.00
2013-11-10,0,0,0,32,32,32,0,0,100,0.00,0.00,0,0,0,0.00
2013-11-11,0,0,0,32,32,32,0,0,100,0.00,0.00,0,0,0,0.00
2013-11-12,0,0,0,32,32,32,0,0,100,0.00,0.00,0,0,0,0.00
2013-11-13,0,0,0,32,32,32,0,0,100,0.00,0.00,0,0,0,0.00
2013-11-14,0,0,0,32,32,32,0,0,100,0.00,0.00,0,0,0,0.00
2013-11-15,0,0,0,32,32,32,0,0,100,0.00,0.00,0,0,0,0.00
2013-11-16,0,0,0,32,32,32,0,0,100,0.00,0.00,0,0,0,0.00
2013-11-17,57,23,0,54,38,0,97,44,79,29.65,0.00,9,0,13,0.00
2013-11-18,39,34,25,34,24,18,84,69,51,30.21,29.65,9,1,9,0.00
2013-11-19,44,30,21,28,22,15,84,72,51,30.33,30.21,6,1,7,0.00
2013-11-20,45,36,28,33,27,24,86,69,48,30.24,30.06,14,3,14,0.00
2013-11-21,45,41,37,41,37,33,93,85,79,30.21,30.09,4,0,4,0.00
2013-11-22,40,33,24,36,25,15,89,73,50,30.42,30.21,8,1,8,0.00
2013-11-23,24,18,11,16,3,-5,70,51,44,30.62,30.33,10,2,10,0.00
2013-11-24,30,18,9,10,1,-7,60,46,41,30.62,30.24,15,2,15,0.00
2013-11-25,29,26,21,22,15,3,75,65,44,30.24,30.00,11,2,13,0.00
2013-11-26,31,26,13,24,14,-2,77,62,45,30.15,29.97,8,1,10,0.00
2013-11-27,30,18,9,12,3,-6,62,51,45,30.18,30.12,8,1,8,0.00
2013-11-28,30,23,15,13,9,5,65,56,46,30.42,30.12,6,1,7,0.00
2013-11-29,35,23,10,18,11,1,73,61,45,30.56,30.33,7,1,8,0.00
2013-11-30,49,34,24,30,22,15,77,62,46,30.33,30.00,10,2,10,0.00
2013-12-1,44,32,27,28,23,18,82,68,46,30.09,29.97,6,1,6,0.00
2013-12-2,41,32,21,33,24,15,87,73,56,29.97,29.77,8,2,8,0.00
2013-12-3,40,38,33,40,37,30,98,96,85,29.77,29.68,12,2,12,0.00
2013-12-4,50,43,36,50,42,32,98,97,85,29.74,29.47,9,2,9,0.00
2013-12-5,36,25,16,32,15,5,87,66,51,30.21,29.62,8,2,8,0.00
2013-12-6,18,13,8,5,0,-6,62,57,49,30.48,30.18,8,1,8,0.00
2013-12-7,21,9,2,4,-6,-11,53,51,46,30.59,30.48,6,0,7,0.00
2013-12-8,25,18,8,21,9,-8,84,67,49,30.53,29.88,8,2,8,0.00
2013-12-9,24,14,-2,20,3,-17,83,63,48,30.12,29.85,8,1,8,0.00
2013-12-10,23,9,-5,8,-6,-20,66,51,48,30.21,29.88,9,2,9,0.00
2013-12-11,14,8,-4,6,-6,-20,69,53,46,30.44,30.18,7,1,7,0.00
2013-12-12,21,9,-4,5,-7,-20,61,49,46,30.42,30.12,7,1,8,0.00
2013-12-13,27,21,12,20,12,1,79,67,59,30.15,30.09,11,2,11,0.00
2013-12-14,29,25,20,22,19,14,83,78,73,30.12,29.88,10,3,11,0.00
2013-12-15,21,13,5,15,0,-11,78,57,45,30.09,29.85,6,1,8,0.00
2013-12-16,18,10,-1,6,-4,-16,68,53,47,30.09,29.94,9,1,10,0.00
2013-12-17,36,24,14,23,15,6,81,67,55,30.00,29.85,6,1,6,0.00
2013-12-18,34,25,10,21,11,-1,64,56,41,30.06,29.74,17,2,17,0.00
2013-12-19,32,30,22,30,23,15,90,76,63,29.94,29.74,10,2,10,0.00
2013-12-20,32,29,26,30,26,23,92,90,86,29.83,29.77,7,2,8,0.00
2013-12-21,32,28,25,32,26,22,98,93,87,29.85,29.65,8,2,9,0.00
2013-12-22,31,26,20,28,22,15,95,85,75,30.06,29.62,6,1,7,0.00
2013-12-23,20,12,1,16,4,-9,83,71,62,30.33,30.06,0,0,0,0.00
2013-12-24,21,6,-5,8,-6,-14,63,59,52,30.44,30.27,0,0,0,0.00
2013-12-25,23,20,12,18,14,-1,81,76,55,30.27,30.03,3,0,4,0.00
2013-12-26,26,21,10,20,14,3,82,75,68,30.21,30.03,6,1,7,0.00
2013-12-27,36,28,16,27,21,9,85,76,63,30.21,29.97,8,1,11,0.00
2013-12-28,44,35,22,32,26,17,87,70,54,30.00,29.74,13,1,13,0.00
2013-12-29,37,22,2,28,12,-11,83,66,55,30.15,29.71,10,2,11,0.00
2013-12-30,7,1,-7,-6,-12,-19,55,55,55,30.27,30.12,5,0,5,0.00
2013-12-31,10,6,-1,-3,-7,-13,55,55,55,30.30,30.09,6,1,6,0.00
2014-1-1,17,10,4,8,-1,-9,68,61,55,30.27,30.21,9,3,9,0.00
2014-1-2,18,8,-4,5,-3,-19,68,59,48,30.36,30.15,7,2,8,0.00